logo dgac
Martes 28 de Mayo del 2024
Buscar por aerodromo o helipuerto
Ingrese nombre de aeródromo, localidad o designador OACI:

Aeródromo: Diego Aracena (PUB) (SCDA)

Ubicación: Iquique, I Región, Chile (20º 32' 07'' S, 70º 10' 53'' W) Ver ubicación en el mapa

Pistas

Luces
Orientación Dimensión Pendiente Superficie Resistencia APCH THR RWY PAPI
01/19 3.350 x 45 0,50 ASPH PCN 53 F/A/W/T
Horas de operación H24
Elevación 48 m / 156 ft
Otra Información Adm : D.G.A.C.
Uso : PUB
Ubicado a 45 km S Ciudad Iquique
TEL (56) 57 2461200
email : aro.iquique@dgac.gob.cl

Otra información ver AIP-Chile Volumen I AD 2.5.1 SCDA
CCCM/FCCV Descargar CCCM/FCCV
andera de Chile
Mapa de Diego Aracena (PUB) (SCDA)

Último METAR

METAR SCDA 280800Z VRB02KT 9999 OVC021 16/10 Q1015

Último TAF

TAF SCDA 280440Z 2806/2906 28005KT 9999 OVC025 TN16/2810Z TX19/2818Z BECMG 2815/2817 21012KT FEW020 BECMG 2820/2822 OVC025 BECMG 2902/2904 11004KT

Últimas fotos cámaras

Imagen aerodromo Diego Aracena (PUB) (SCDA) Norte tomada el 28-05-2024 08:27:58 Imagen aerodromo Diego Aracena (PUB) (SCDA) Sur tomada el 28-05-2024 08:28:34

Último NOTAM

A1761/24 NOTAMN Q)SCFZ/QFFCG/IV/NBO/A/000/999/2032S07011W005 A)SCDA B)2405290400 C)2405301000 D)DLY BTN 0400-1000 E)SSEI DOWNGRADED TO CAT 5